sensor_id;sensor_type;location;lat;lon;timestamp;P1;durP1;ratioP1;P2;durP2;ratioP2
84814;SDS011;75050;53.190;5.562;2024-01-10T00:00:03;11.77;;;10.77;;
84814;SDS011;75050;53.190;5.562;2024-01-10T00:02:30;13.05;;;12.05;;
84814;SDS011;75050;53.190;5.562;2024-01-10T00:04:55;12.13;;;11.18;;
84814;SDS011;75050;53.190;5.562;2024-01-10T00:07:22;11.55;;;10.55;;
84814;SDS011;75050;53.190;5.562;2024-01-10T00:09:47;11.55;;;10.65;;
84814;SDS011;75050;53.190;5.562;2024-01-10T00:12:13;12.63;;;11.60;;
84814;SDS011;75050;53.190;5.562;2024-01-10T00:14:38;14.25;;;13.32;;
84814;SDS011;75050;53.190;5.562;2024-01-10T00:17:06;10.73;;;9.82;;
84814;SDS011;75050;53.190;5.562;2024-01-10T00:19:31;12.48;;;11.48;;
84814;SDS011;75050;53.190;5.562;2024-01-10T00:22:01;12.02;;;10.93;;
84814;SDS011;75050;53.190;5.562;2024-01-10T00:24:26;13.98;;;12.85;;
84814;SDS011;75050;53.190;5.562;2024-01-10T00:26:52;10.43;;;9.57;;
84814;SDS011;75050;53.190;5.562;2024-01-10T00:29:17;11.00;;;10.13;;
84814;SDS011;75050;53.190;5.562;2024-01-10T00:31:42;12.73;;;11.63;;
84814;SDS011;75050;53.190;5.562;2024-01-10T00:34:08;10.77;;;9.68;;
84814;SDS011;75050;53.190;5.562;2024-01-10T00:36:33;12.85;;;11.85;;
84814;SDS011;75050;53.190;5.562;2024-01-10T00:39:00;10.27;;;9.35;;
84814;SDS011;75050;53.190;5.562;2024-01-10T00:41:25;11.30;;;10.40;;
84814;SDS011;75050;53.190;5.562;2024-01-10T00:43:51;11.88;;;10.98;;
84814;SDS011;75050;53.190;5.562;2024-01-10T00:46:16;12.38;;;11.18;;
84814;SDS011;75050;53.190;5.562;2024-01-10T00:48:41;12.10;;;11.10;;
84814;SDS011;75050;53.190;5.562;2024-01-10T00:51:08;10.15;;;9.35;;
84814;SDS011;75050;53.190;5.562;2024-01-10T00:53:34;10.45;;;9.52;;
84814;SDS011;75050;53.190;5.562;2024-01-10T00:56:06;11.10;;;10.27;;
84814;SDS011;75050;53.190;5.562;2024-01-10T00:58:32;12.05;;;11.07;;
84814;SDS011;75050;53.190;5.562;2024-01-10T01:00:57;10.38;;;9.48;;
84814;SDS011;75050;53.190;5.562;2024-01-10T01:03:22;11.82;;;10.93;;
84814;SDS011;75050;53.190;5.562;2024-01-10T01:05:50;11.75;;;10.77;;
84814;SDS011;75050;53.190;5.562;2024-01-10T01:08:15;11.18;;;10.25;;
84814;SDS011;75050;53.190;5.562;2024-01-10T01:10:41;12.15;;;11.15;;
84814;SDS011;75050;53.190;5.562;2024-01-10T01:13:06;12.10;;;11.18;;
84814;SDS011;75050;53.190;5.562;2024-01-10T01:15:32;14.82;;;13.73;;
84814;SDS011;75050;53.190;5.562;2024-01-10T01:17:57;14.73;;;13.75;;
84814;SDS011;75050;53.190;5.562;2024-01-10T01:20:23;13.40;;;12.32;;
84814;SDS011;75050;53.190;5.562;2024-01-10T01:22:48;12.43;;;11.43;;
84814;SDS011;75050;53.190;5.562;2024-01-10T01:25:14;13.93;;;12.95;;
84814;SDS011;75050;53.190;5.562;2024-01-10T01:27:40;11.98;;;10.98;;
84814;SDS011;75050;53.190;5.562;2024-01-10T01:30:06;11.70;;;10.85;;
84814;SDS011;75050;53.190;5.562;2024-01-10T01:32:32;13.45;;;12.55;;
84814;SDS011;75050;53.190;5.562;2024-01-10T01:34:57;11.57;;;10.60;;
84814;SDS011;75050;53.190;5.562;2024-01-10T01:37:31;11.25;;;10.35;;
84814;SDS011;75050;53.190;5.562;2024-01-10T01:39:56;14.57;;;13.30;;
84814;SDS011;75050;53.190;5.562;2024-01-10T01:42:22;11.95;;;10.88;;
84814;SDS011;75050;53.190;5.562;2024-01-10T01:44:47;15.13;;;13.88;;
84814;SDS011;75050;53.190;5.562;2024-01-10T01:47:19;16.20;;;15.02;;
84814;SDS011;75050;53.190;5.562;2024-01-10T01:49:44;13.52;;;12.52;;
84814;SDS011;75050;53.190;5.562;2024-01-10T01:52:10;12.68;;;11.60;;
84814;SDS011;75050;53.190;5.562;2024-01-10T01:54:35;14.40;;;13.23;;
84814;SDS011;75050;53.190;5.562;2024-01-10T01:57:01;12.73;;;11.55;;
84814;SDS011;75050;53.190;5.562;2024-01-10T01:59:27;16.20;;;14.90;;
84814;SDS011;75050;53.190;5.562;2024-01-10T02:01:52;12.82;;;11.73;;
84814;SDS011;75050;53.190;5.562;2024-01-10T02:04:20;17.33;;;15.93;;
84814;SDS011;75050;53.190;5.562;2024-01-10T02:06:45;13.30;;;12.20;;
84814;SDS011;75050;53.190;5.562;2024-01-10T02:09:17;12.85;;;11.65;;
84814;SDS011;75050;53.190;5.562;2024-01-10T02:11:42;14.57;;;13.38;;
84814;SDS011;75050;53.190;5.562;2024-01-10T02:14:08;12.07;;;11.02;;
84814;SDS011;75050;53.190;5.562;2024-01-10T02:16:33;15.45;;;14.25;;
84814;SDS011;75050;53.190;5.562;2024-01-10T02:18:59;13.27;;;12.18;;
84814;SDS011;75050;53.190;5.562;2024-01-10T02:21:34;13.50;;;12.20;;
84814;SDS011;75050;53.190;5.562;2024-01-10T02:23:59;13.82;;;12.52;;
84814;SDS011;75050;53.190;5.562;2024-01-10T02:26:24;15.35;;;14.13;;
84814;SDS011;75050;53.190;5.562;2024-01-10T02:28:59;14.27;;;13.10;;
84814;SDS011;75050;53.190;5.562;2024-01-10T02:31:25;14.18;;;12.80;;
84814;SDS011;75050;53.190;5.562;2024-01-10T02:33:53;14.15;;;12.82;;
84814;SDS011;75050;53.190;5.562;2024-01-10T02:36:18;14.35;;;13.05;;
84814;SDS011;75050;53.190;5.562;2024-01-10T02:38:45;18.67;;;17.17;;
84814;SDS011;75050;53.190;5.562;2024-01-10T02:41:10;14.73;;;13.32;;
84814;SDS011;75050;53.190;5.562;2024-01-10T02:43:36;13.98;;;12.77;;
84814;SDS011;75050;53.190;5.562;2024-01-10T02:46:01;12.88;;;11.75;;
84814;SDS011;75050;53.190;5.562;2024-01-10T02:48:26;16.17;;;14.80;;
84814;SDS011;75050;53.190;5.562;2024-01-10T02:50:54;16.42;;;14.70;;
84814;SDS011;75050;53.190;5.562;2024-01-10T02:53:20;13.10;;;11.90;;
84814;SDS011;75050;53.190;5.562;2024-01-10T02:55:46;12.20;;;11.00;;
84814;SDS011;75050;53.190;5.562;2024-01-10T02:58:11;16.65;;;15.25;;
84814;SDS011;75050;53.190;5.562;2024-01-10T03:00:54;14.98;;;13.57;;
84814;SDS011;75050;53.190;5.562;2024-01-10T03:03:19;15.60;;;14.13;;
84814;SDS011;75050;53.190;5.562;2024-01-10T03:05:45;13.20;;;11.93;;
84814;SDS011;75050;53.190;5.562;2024-01-10T03:08:10;13.52;;;11.88;;
84814;SDS011;75050;53.190;5.562;2024-01-10T03:10:36;15.95;;;14.43;;
84814;SDS011;75050;53.190;5.562;2024-01-10T03:13:01;15.68;;;14.30;;
84814;SDS011;75050;53.190;5.562;2024-01-10T03:18:19;13.98;;;12.60;;
84814;SDS011;75050;53.190;5.562;2024-01-10T03:21:02;13.98;;;12.48;;
84814;SDS011;75050;53.190;5.562;2024-01-10T03:23:27;12.50;;;11.30;;
84814;SDS011;75050;53.190;5.562;2024-01-10T03:25:53;15.95;;;14.43;;
84814;SDS011;75050;53.190;5.562;2024-01-10T03:28:25;14.30;;;12.90;;
84814;SDS011;75050;53.190;5.562;2024-01-10T03:30:50;16.52;;;15.02;;
84814;SDS011;75050;53.190;5.562;2024-01-10T03:33:32;14.52;;;12.90;;
84814;SDS011;75050;53.190;5.562;2024-01-10T03:35:58;16.02;;;14.50;;
84814;SDS011;75050;53.190;5.562;2024-01-10T03:38:25;17.63;;;16.05;;
84814;SDS011;75050;53.190;5.562;2024-01-10T03:40:51;16.20;;;14.40;;
84814;SDS011;75050;53.190;5.562;2024-01-10T03:43:23;15.98;;;14.18;;
84814;SDS011;75050;53.190;5.562;2024-01-10T03:45:48;14.88;;;13.38;;
84814;SDS011;75050;53.190;5.562;2024-01-10T03:48:14;17.50;;;15.90;;
84814;SDS011;75050;53.190;5.562;2024-01-10T03:50:39;17.80;;;16.02;;
84814;SDS011;75050;53.190;5.562;2024-01-10T03:53:04;14.93;;;13.40;;
84814;SDS011;75050;53.190;5.562;2024-01-10T03:55:34;17.65;;;15.88;;
84814;SDS011;75050;53.190;5.562;2024-01-10T03:57:59;17.60;;;15.90;;
84814;SDS011;75050;53.190;5.562;2024-01-10T04:00:27;16.20;;;14.73;;
84814;SDS011;75050;53.190;5.562;2024-01-10T04:02:52;16.05;;;14.35;;
84814;SDS011;75050;53.190;5.562;2024-01-10T04:05:20;18.08;;;16.30;;
84814;SDS011;75050;53.190;5.562;2024-01-10T04:07:45;19.02;;;17.27;;
84814;SDS011;75050;53.190;5.562;2024-01-10T04:10:11;16.80;;;14.98;;
84814;SDS011;75050;53.190;5.562;2024-01-10T04:12:46;19.20;;;17.33;;
84814;SDS011;75050;53.190;5.562;2024-01-10T04:15:11;18.92;;;17.13;;
84814;SDS011;75050;53.190;5.562;2024-01-10T04:17:38;16.70;;;15.07;;
84814;SDS011;75050;53.190;5.562;2024-01-10T04:20:04;17.38;;;15.75;;
84814;SDS011;75050;53.190;5.562;2024-01-10T04:22:30;18.23;;;16.42;;
84814;SDS011;75050;53.190;5.562;2024-01-10T04:25:05;17.50;;;15.93;;
84814;SDS011;75050;53.190;5.562;2024-01-10T04:27:31;17.92;;;16.02;;
84814;SDS011;75050;53.190;5.562;2024-01-10T04:35:19;15.73;;;14.13;;
84814;SDS011;75050;53.190;5.562;2024-01-10T04:37:48;16.08;;;14.57;;
84814;SDS011;75050;53.190;5.562;2024-01-10T04:40:13;18.00;;;16.30;;
84814;SDS011;75050;53.190;5.562;2024-01-10T04:42:47;18.23;;;16.42;;
84814;SDS011;75050;53.190;5.562;2024-01-10T04:45:20;15.90;;;14.27;;
84814;SDS011;75050;53.190;5.562;2024-01-10T04:47:45;17.45;;;15.90;;
84814;SDS011;75050;53.190;5.562;2024-01-10T04:50:11;17.85;;;15.30;;
84814;SDS011;75050;53.190;5.562;2024-01-10T04:52:37;16.33;;;14.68;;
84814;SDS011;75050;53.190;5.562;2024-01-10T04:55:03;17.40;;;15.73;;
84814;SDS011;75050;53.190;5.562;2024-01-10T04:57:30;18.75;;;17.02;;
84814;SDS011;75050;53.190;5.562;2024-01-10T04:59:56;17.95;;;16.13;;
84814;SDS011;75050;53.190;5.562;2024-01-10T05:02:22;16.80;;;15.15;;
84814;SDS011;75050;53.190;5.562;2024-01-10T05:04:55;16.83;;;15.13;;
84814;SDS011;75050;53.190;5.562;2024-01-10T05:07:20;17.10;;;15.57;;
84814;SDS011;75050;53.190;5.562;2024-01-10T05:09:48;17.73;;;15.93;;
84814;SDS011;75050;53.190;5.562;2024-01-10T05:12:13;15.63;;;14.10;;
84814;SDS011;75050;53.190;5.562;2024-01-10T05:14:39;16.33;;;14.43;;
84814;SDS011;75050;53.190;5.562;2024-01-10T05:17:04;14.60;;;13.13;;
84814;SDS011;75050;53.190;5.562;2024-01-10T05:19:38;17.58;;;15.95;;
84814;SDS011;75050;53.190;5.562;2024-01-10T05:22:04;17.45;;;15.93;;
84814;SDS011;75050;53.190;5.562;2024-01-10T05:24:42;17.95;;;16.20;;
84814;SDS011;75050;53.190;5.562;2024-01-10T05:27:07;16.17;;;14.63;;
84814;SDS011;75050;53.190;5.562;2024-01-10T05:29:33;15.25;;;13.77;;
84814;SDS011;75050;53.190;5.562;2024-01-10T05:31:58;18.65;;;17.02;;
84814;SDS011;75050;53.190;5.562;2024-01-10T05:34:24;16.02;;;14.63;;
84814;SDS011;75050;53.190;5.562;2024-01-10T05:36:49;13.93;;;12.52;;
84814;SDS011;75050;53.190;5.562;2024-01-10T05:39:15;16.98;;;15.38;;
84814;SDS011;75050;53.190;5.562;2024-01-10T05:41:41;16.92;;;15.25;;
84814;SDS011;75050;53.190;5.562;2024-01-10T05:44:08;15.30;;;13.82;;
84814;SDS011;75050;53.190;5.562;2024-01-10T05:46:34;16.65;;;14.95;;
84814;SDS011;75050;53.190;5.562;2024-01-10T05:49:17;16.10;;;14.48;;
84814;SDS011;75050;53.190;5.562;2024-01-10T05:51:43;18.70;;;17.00;;
84814;SDS011;75050;53.190;5.562;2024-01-10T05:54:08;16.52;;;15.02;;
84814;SDS011;75050;53.190;5.562;2024-01-10T05:56:35;15.30;;;13.77;;
84814;SDS011;75050;53.190;5.562;2024-01-10T05:59:00;13.95;;;12.52;;
84814;SDS011;75050;53.190;5.562;2024-01-10T06:01:26;15.98;;;14.65;;
84814;SDS011;75050;53.190;5.562;2024-01-10T06:03:52;16.25;;;14.75;;
84814;SDS011;75050;53.190;5.562;2024-01-10T06:06:17;16.58;;;14.88;;
84814;SDS011;75050;53.190;5.562;2024-01-10T06:08:43;15.95;;;14.32;;
84814;SDS011;75050;53.190;5.562;2024-01-10T06:11:09;16.15;;;14.45;;
84814;SDS011;75050;53.190;5.562;2024-01-10T06:13:35;15.18;;;13.85;;
84814;SDS011;75050;53.190;5.562;2024-01-10T06:16:02;15.68;;;14.20;;
84814;SDS011;75050;53.190;5.562;2024-01-10T06:18:28;16.23;;;14.57;;
84814;SDS011;75050;53.190;5.562;2024-01-10T06:20:54;16.27;;;14.70;;
84814;SDS011;75050;53.190;5.562;2024-01-10T06:23:19;15.38;;;13.88;;
84814;SDS011;75050;53.190;5.562;2024-01-10T06:25:53;15.05;;;13.52;;
84814;SDS011;75050;53.190;5.562;2024-01-10T06:28:19;16.50;;;14.35;;
84814;SDS011;75050;53.190;5.562;2024-01-10T06:30:45;14.95;;;13.43;;
84814;SDS011;75050;53.190;5.562;2024-01-10T06:33:11;15.57;;;14.05;;
84814;SDS011;75050;53.190;5.562;2024-01-10T06:35:37;15.13;;;13.63;;
84814;SDS011;75050;53.190;5.562;2024-01-10T06:38:02;19.63;;;17.95;;
84814;SDS011;75050;53.190;5.562;2024-01-10T06:40:29;15.30;;;13.70;;
84814;SDS011;75050;53.190;5.562;2024-01-10T06:42:55;16.77;;;15.20;;
84814;SDS011;75050;53.190;5.562;2024-01-10T06:45:20;14.18;;;12.75;;
84814;SDS011;75050;53.190;5.562;2024-01-10T06:47:47;16.88;;;15.27;;
84814;SDS011;75050;53.190;5.562;2024-01-10T06:50:12;16.17;;;14.57;;
84814;SDS011;75050;53.190;5.562;2024-01-10T06:52:38;15.77;;;14.13;;
84814;SDS011;75050;53.190;5.562;2024-01-10T06:55:03;13.48;;;12.07;;
84814;SDS011;75050;53.190;5.562;2024-01-10T06:57:29;17.08;;;15.30;;
84814;SDS011;75050;53.190;5.562;2024-01-10T06:59:55;15.68;;;14.10;;
84814;SDS011;75050;53.190;5.562;2024-01-10T07:02:20;17.00;;;15.30;;
84814;SDS011;75050;53.190;5.562;2024-01-10T07:04:51;15.80;;;14.07;;
84814;SDS011;75050;53.190;5.562;2024-01-10T07:09:42;14.75;;;13.15;;
84814;SDS011;75050;53.190;5.562;2024-01-10T07:12:10;18.67;;;17.05;;
84814;SDS011;75050;53.190;5.562;2024-01-10T07:14:35;16.55;;;14.85;;
84814;SDS011;75050;53.190;5.562;2024-01-10T07:17:01;15.75;;;14.10;;
84814;SDS011;75050;53.190;5.562;2024-01-10T07:19:27;17.70;;;16.00;;
84814;SDS011;75050;53.190;5.562;2024-01-10T07:21:54;16.25;;;14.63;;
84814;SDS011;75050;53.190;5.562;2024-01-10T07:24:20;14.57;;;13.07;;
84814;SDS011;75050;53.190;5.562;2024-01-10T07:26:46;17.60;;;15.90;;
84814;SDS011;75050;53.190;5.562;2024-01-10T07:29:11;16.20;;;14.70;;
84814;SDS011;75050;53.190;5.562;2024-01-10T07:31:37;17.83;;;16.05;;
84814;SDS011;75050;53.190;5.562;2024-01-10T07:34:02;16.60;;;14.93;;
84814;SDS011;75050;53.190;5.562;2024-01-10T07:36:48;18.17;;;16.42;;
84814;SDS011;75050;53.190;5.562;2024-01-10T07:39:14;15.23;;;13.73;;
84814;SDS011;75050;53.190;5.562;2024-01-10T07:41:45;16.88;;;15.07;;
84814;SDS011;75050;53.190;5.562;2024-01-10T07:44:11;16.42;;;14.73;;
84814;SDS011;75050;53.190;5.562;2024-01-10T07:46:37;15.85;;;13.98;;
84814;SDS011;75050;53.190;5.562;2024-01-10T07:49:07;21.15;;;19.35;;
84814;SDS011;75050;53.190;5.562;2024-01-10T07:51:33;16.73;;;15.13;;
84814;SDS011;75050;53.190;5.562;2024-01-10T07:53:58;18.70;;;17.00;;
84814;SDS011;75050;53.190;5.562;2024-01-10T07:56:25;18.63;;;16.95;;
84814;SDS011;75050;53.190;5.562;2024-01-10T07:58:50;15.88;;;13.82;;
84814;SDS011;75050;53.190;5.562;2024-01-10T08:01:21;18.95;;;17.10;;
84814;SDS011;75050;53.190;5.562;2024-01-10T08:03:54;15.07;;;13.57;;
84814;SDS011;75050;53.190;5.562;2024-01-10T08:06:22;17.98;;;15.95;;
84814;SDS011;75050;53.190;5.562;2024-01-10T08:08:54;17.48;;;15.63;;
84814;SDS011;75050;53.190;5.562;2024-01-10T08:11:20;19.25;;;17.52;;
84814;SDS011;75050;53.190;5.562;2024-01-10T08:13:46;17.15;;;15.63;;
84814;SDS011;75050;53.190;5.562;2024-01-10T08:16:11;16.75;;;15.15;;
84814;SDS011;75050;53.190;5.562;2024-01-10T08:18:36;14.45;;;13.13;;
84814;SDS011;75050;53.190;5.562;2024-01-10T08:21:04;15.13;;;13.73;;
84814;SDS011;75050;53.190;5.562;2024-01-10T08:23:30;18.13;;;16.42;;
84814;SDS011;75050;53.190;5.562;2024-01-10T08:25:55;16.33;;;14.32;;
84814;SDS011;75050;53.190;5.562;2024-01-10T08:28:21;16.98;;;15.35;;
84814;SDS011;75050;53.190;5.562;2024-01-10T08:30:46;18.17;;;16.52;;
84814;SDS011;75050;53.190;5.562;2024-01-10T08:33:12;17.42;;;15.75;;
84814;SDS011;75050;53.190;5.562;2024-01-10T08:35:38;16.02;;;14.63;;
84814;SDS011;75050;53.190;5.562;2024-01-10T08:38:37;16.52;;;14.85;;
84814;SDS011;75050;53.190;5.562;2024-01-10T08:41:03;16.65;;;14.95;;
84814;SDS011;75050;53.190;5.562;2024-01-10T08:43:29;23.58;;;21.80;;
84814;SDS011;75050;53.190;5.562;2024-01-10T08:45:55;20.58;;;18.95;;
84814;SDS011;75050;53.190;5.562;2024-01-10T08:48:20;14.65;;;13.23;;
84814;SDS011;75050;53.190;5.562;2024-01-10T08:50:46;15.90;;;14.27;;
84814;SDS011;75050;53.190;5.562;2024-01-10T08:53:11;16.25;;;14.75;;
84814;SDS011;75050;53.190;5.562;2024-01-10T08:55:36;14.95;;;13.40;;
84814;SDS011;75050;53.190;5.562;2024-01-10T08:58:02;17.15;;;15.30;;
84814;SDS011;75050;53.190;5.562;2024-01-10T09:00:28;16.88;;;15.52;;
84814;SDS011;75050;53.190;5.562;2024-01-10T09:02:54;17.20;;;15.60;;
84814;SDS011;75050;53.190;5.562;2024-01-10T09:05:20;16.33;;;14.70;;
84814;SDS011;75050;53.190;5.562;2024-01-10T09:07:46;17.50;;;16.10;;
84814;SDS011;75050;53.190;5.562;2024-01-10T09:10:12;16.38;;;14.82;;
84814;SDS011;75050;53.190;5.562;2024-01-10T09:12:38;14.90;;;13.20;;
84814;SDS011;75050;53.190;5.562;2024-01-10T09:15:03;14.88;;;13.30;;
84814;SDS011;75050;53.190;5.562;2024-01-10T09:17:29;15.70;;;14.27;;
84814;SDS011;75050;53.190;5.562;2024-01-10T09:19:54;13.98;;;12.68;;
84814;SDS011;75050;53.190;5.562;2024-01-10T09:22:20;15.45;;;14.00;;
84814;SDS011;75050;53.190;5.562;2024-01-10T09:24:45;14.30;;;12.20;;
84814;SDS011;75050;53.190;5.562;2024-01-10T09:27:10;15.07;;;13.57;;
84814;SDS011;75050;53.190;5.562;2024-01-10T09:29:36;13.55;;;12.32;;
84814;SDS011;75050;53.190;5.562;2024-01-10T09:32:02;14.15;;;12.85;;
84814;SDS011;75050;53.190;5.562;2024-01-10T09:34:28;15.57;;;14.20;;
84814;SDS011;75050;53.190;5.562;2024-01-10T09:36:53;13.88;;;12.50;;
84814;SDS011;75050;53.190;5.562;2024-01-10T09:39:19;14.20;;;13.00;;
84814;SDS011;75050;53.190;5.562;2024-01-10T09:41:48;13.65;;;12.35;;
84814;SDS011;75050;53.190;5.562;2024-01-10T09:44:15;13.38;;;12.07;;
84814;SDS011;75050;53.190;5.562;2024-01-10T09:46:43;15.27;;;13.88;;
84814;SDS011;75050;53.190;5.562;2024-01-10T09:49:11;14.32;;;13.05;;
84814;SDS011;75050;53.190;5.562;2024-01-10T09:51:36;14.90;;;13.55;;
84814;SDS011;75050;53.190;5.562;2024-01-10T09:54:02;12.82;;;11.63;;
84814;SDS011;75050;53.190;5.562;2024-01-10T09:56:30;14.23;;;12.82;;
84814;SDS011;75050;53.190;5.562;2024-01-10T09:58:56;19.23;;;17.60;;
84814;SDS011;75050;53.190;5.562;2024-01-10T10:01:23;15.00;;;13.85;;
84814;SDS011;75050;53.190;5.562;2024-01-10T10:03:49;14.02;;;12.85;;
84814;SDS011;75050;53.190;5.562;2024-01-10T10:06:15;15.80;;;14.30;;
84814;SDS011;75050;53.190;5.562;2024-01-10T10:08:41;13.45;;;12.15;;
84814;SDS011;75050;53.190;5.562;2024-01-10T10:11:07;14.65;;;13.38;;
84814;SDS011;75050;53.190;5.562;2024-01-10T10:13:38;15.75;;;14.55;;
84814;SDS011;75050;53.190;5.562;2024-01-10T10:16:06;13.68;;;12.27;;
84814;SDS011;75050;53.190;5.562;2024-01-10T10:18:34;14.45;;;13.23;;
84814;SDS011;75050;53.190;5.562;2024-01-10T10:23:40;12.85;;;11.55;;
84814;SDS011;75050;53.190;5.562;2024-01-10T10:26:11;14.07;;;12.57;;
84814;SDS011;75050;53.190;5.562;2024-01-10T10:28:39;11.48;;;10.27;;
84814;SDS011;75050;53.190;5.562;2024-01-10T10:31:05;11.43;;;10.32;;
84814;SDS011;75050;53.190;5.562;2024-01-10T10:33:32;14.32;;;13.02;;
84814;SDS011;75050;53.190;5.562;2024-01-10T10:35:57;14.18;;;12.93;;
84814;SDS011;75050;53.190;5.562;2024-01-10T10:38:23;15.05;;;13.93;;
84814;SDS011;75050;53.190;5.562;2024-01-10T10:40:48;12.70;;;11.57;;
84814;SDS011;75050;53.190;5.562;2024-01-10T10:43:14;14.15;;;12.85;;
84814;SDS011;75050;53.190;5.562;2024-01-10T10:45:49;13.85;;;12.68;;
84814;SDS011;75050;53.190;5.562;2024-01-10T10:48:19;12.68;;;11.55;;
84814;SDS011;75050;53.190;5.562;2024-01-10T10:51:03;11.98;;;10.50;;
84814;SDS011;75050;53.190;5.562;2024-01-10T10:54:03;12.90;;;11.57;;
84814;SDS011;75050;53.190;5.562;2024-01-10T10:56:30;16.55;;;14.07;;
84814;SDS011;75050;53.190;5.562;2024-01-10T10:58:57;12.70;;;11.32;;
84814;SDS011;75050;53.190;5.562;2024-01-10T11:01:25;12.88;;;11.68;;
84814;SDS011;75050;53.190;5.562;2024-01-10T11:03:52;12.63;;;10.73;;
84814;SDS011;75050;53.190;5.562;2024-01-10T11:06:18;16.33;;;14.82;;
84814;SDS011;75050;53.190;5.562;2024-01-10T11:08:47;13.68;;;12.18;;
84814;SDS011;75050;53.190;5.562;2024-01-10T11:19:52;14.02;;;11.15;;
84814;SDS011;75050;53.190;5.562;2024-01-10T11:22:41;12.80;;;11.70;;
84814;SDS011;75050;53.190;5.562;2024-01-10T11:25:17;13.25;;;12.00;;
84814;SDS011;75050;53.190;5.562;2024-01-10T11:27:44;13.30;;;12.00;;
84814;SDS011;75050;53.190;5.562;2024-01-10T11:30:10;14.18;;;12.82;;
84814;SDS011;75050;53.190;5.562;2024-01-10T11:32:36;12.95;;;11.65;;
84814;SDS011;75050;53.190;5.562;2024-01-10T11:35:10;14.15;;;12.85;;
84814;SDS011;75050;53.190;5.562;2024-01-10T11:37:44;13.02;;;10.90;;
84814;SDS011;75050;53.190;5.562;2024-01-10T11:40:10;13.40;;;12.13;;
84814;SDS011;75050;53.190;5.562;2024-01-10T11:42:46;11.98;;;10.88;;
84814;SDS011;75050;53.190;5.562;2024-01-10T11:47:56;15.18;;;13.75;;
84814;SDS011;75050;53.190;5.562;2024-01-10T11:50:22;12.18;;;10.63;;
84814;SDS011;75050;53.190;5.562;2024-01-10T11:52:52;13.30;;;11.98;;
84814;SDS011;75050;53.190;5.562;2024-01-10T11:58:12;12.63;;;11.43;;
84814;SDS011;75050;53.190;5.562;2024-01-10T12:00:37;11.63;;;10.50;;
84814;SDS011;75050;53.190;5.562;2024-01-10T12:03:04;12.20;;;10.93;;
84814;SDS011;75050;53.190;5.562;2024-01-10T12:05:29;12.55;;;10.95;;
84814;SDS011;75050;53.190;5.562;2024-01-10T12:07:55;13.32;;;11.25;;
84814;SDS011;75050;53.190;5.562;2024-01-10T12:10:20;12.57;;;11.50;;
84814;SDS011;75050;53.190;5.562;2024-01-10T12:12:46;14.52;;;13.18;;
84814;SDS011;75050;53.190;5.562;2024-01-10T12:15:11;16.38;;;14.98;;
84814;SDS011;75050;53.190;5.562;2024-01-10T12:17:37;12.23;;;11.13;;
84814;SDS011;75050;53.190;5.562;2024-01-10T12:20:02;12.25;;;11.13;;
84814;SDS011;75050;53.190;5.562;2024-01-10T12:22:28;12.85;;;11.63;;
84814;SDS011;75050;53.190;5.562;2024-01-10T12:24:53;13.80;;;11.48;;
84814;SDS011;75050;53.190;5.562;2024-01-10T12:27:19;12.68;;;11.48;;
84814;SDS011;75050;53.190;5.562;2024-01-10T12:29:47;11.75;;;10.55;;
84814;SDS011;75050;53.190;5.562;2024-01-10T12:32:22;12.55;;;11.27;;
84814;SDS011;75050;53.190;5.562;2024-01-10T12:34:48;11.00;;;9.90;;
84814;SDS011;75050;53.190;5.562;2024-01-10T12:37:13;11.43;;;10.30;;
84814;SDS011;75050;53.190;5.562;2024-01-10T12:39:38;13.90;;;12.60;;
84814;SDS011;75050;53.190;5.562;2024-01-10T12:42:04;12.35;;;11.15;;
84814;SDS011;75050;53.190;5.562;2024-01-10T12:44:30;12.35;;;10.32;;
84814;SDS011;75050;53.190;5.562;2024-01-10T12:46:55;10.75;;;9.70;;
84814;SDS011;75050;53.190;5.562;2024-01-10T12:49:22;12.02;;;10.85;;
84814;SDS011;75050;53.190;5.562;2024-01-10T12:51:48;10.50;;;9.43;;
84814;SDS011;75050;53.190;5.562;2024-01-10T12:54:14;11.20;;;10.10;;
84814;SDS011;75050;53.190;5.562;2024-01-10T12:56:41;12.00;;;10.90;;
84814;SDS011;75050;53.190;5.562;2024-01-10T12:59:06;10.05;;;9.13;;
84814;SDS011;75050;53.190;5.562;2024-01-10T13:01:35;12.32;;;11.07;;
84814;SDS011;75050;53.190;5.562;2024-01-10T13:04:01;11.75;;;10.68;;
84814;SDS011;75050;53.190;5.562;2024-01-10T13:06:26;12.35;;;11.02;;
84814;SDS011;75050;53.190;5.562;2024-01-10T13:08:51;11.77;;;10.55;;
84814;SDS011;75050;53.190;5.562;2024-01-10T13:11:17;10.68;;;9.57;;
84814;SDS011;75050;53.190;5.562;2024-01-10T13:13:42;11.75;;;10.75;;
84814;SDS011;75050;53.190;5.562;2024-01-10T13:16:08;11.38;;;9.63;;
84814;SDS011;75050;53.190;5.562;2024-01-10T13:18:35;12.52;;;11.30;;
84814;SDS011;75050;53.190;5.562;2024-01-10T13:21:02;12.32;;;11.13;;
84814;SDS011;75050;53.190;5.562;2024-01-10T13:23:28;11.63;;;10.48;;
84814;SDS011;75050;53.190;5.562;2024-01-10T13:25:53;11.23;;;10.05;;
84814;SDS011;75050;53.190;5.562;2024-01-10T13:28:18;10.90;;;9.75;;
84814;SDS011;75050;53.190;5.562;2024-01-10T13:30:44;12.57;;;11.35;;
84814;SDS011;75050;53.190;5.562;2024-01-10T13:33:09;10.23;;;9.18;;
84814;SDS011;75050;53.190;5.562;2024-01-10T13:35:35;10.73;;;9.05;;
84814;SDS011;75050;53.190;5.562;2024-01-10T13:38:01;12.30;;;11.30;;
84814;SDS011;75050;53.190;5.562;2024-01-10T13:40:27;12.20;;;11.07;;
84814;SDS011;75050;53.190;5.562;2024-01-10T13:42:52;13.02;;;11.73;;
84814;SDS011;75050;53.190;5.562;2024-01-10T13:45:18;10.68;;;8.90;;
84814;SDS011;75050;53.190;5.562;2024-01-10T13:47:44;11.68;;;10.02;;
84814;SDS011;75050;53.190;5.562;2024-01-10T13:50:09;12.30;;;11.15;;
84814;SDS011;75050;53.190;5.562;2024-01-10T13:52:35;12.27;;;10.05;;
84814;SDS011;75050;53.190;5.562;2024-01-10T13:55:01;12.70;;;11.50;;
84814;SDS011;75050;53.190;5.562;2024-01-10T13:57:31;12.57;;;11.38;;
84814;SDS011;75050;53.190;5.562;2024-01-10T14:00:00;11.50;;;10.10;;
84814;SDS011;75050;53.190;5.562;2024-01-10T14:02:26;12.18;;;10.95;;
84814;SDS011;75050;53.190;5.562;2024-01-10T14:04:54;13.25;;;11.23;;
84814;SDS011;75050;53.190;5.562;2024-01-10T14:07:20;10.05;;;8.57;;
84814;SDS011;75050;53.190;5.562;2024-01-10T14:09:45;11.13;;;10.13;;
84814;SDS011;75050;53.190;5.562;2024-01-10T14:12:11;10.70;;;9.80;;
84814;SDS011;75050;53.190;5.562;2024-01-10T14:14:39;11.48;;;10.43;;
84814;SDS011;75050;53.190;5.562;2024-01-10T14:17:05;14.40;;;13.20;;
84814;SDS011;75050;53.190;5.562;2024-01-10T14:19:31;9.32;;;7.38;;
84814;SDS011;75050;53.190;5.562;2024-01-10T14:21:57;10.93;;;9.93;;
84814;SDS011;75050;53.190;5.562;2024-01-10T14:24:23;11.07;;;10.05;;
84814;SDS011;75050;53.190;5.562;2024-01-10T14:26:54;10.57;;;9.60;;
84814;SDS011;75050;53.190;5.562;2024-01-10T14:29:36;11.15;;;10.05;;
84814;SDS011;75050;53.190;5.562;2024-01-10T14:32:47;9.20;;;8.23;;
84814;SDS011;75050;53.190;5.562;2024-01-10T14:45:31;10.88;;;9.93;;
84814;SDS011;75050;53.190;5.562;2024-01-10T14:47:57;12.65;;;11.45;;
84814;SDS011;75050;53.190;5.562;2024-01-10T14:53:25;10.80;;;9.77;;
84814;SDS011;75050;53.190;5.562;2024-01-10T14:56:09;10.65;;;9.43;;
84814;SDS011;75050;53.190;5.562;2024-01-10T14:58:40;13.23;;;12.00;;
84814;SDS011;75050;53.190;5.562;2024-01-10T15:01:12;10.88;;;9.88;;
84814;SDS011;75050;53.190;5.562;2024-01-10T15:16:31;12.32;;;11.20;;